Главная страница
METAR-TAF:

METAR-TAF

Аэропорты :

Сейняйоки

Сейняйоки-Илмайоки, Финляндия

широта: 62-41-37N, долгота: 022-49-55E, высота над уровнем моря: 91 м

Текущие метеонаблюдения

Эта сводка был подготовлена 11 минут назад, в 15:20 UTC
Ветер 4 Узел от северо-западный, изменяющийся между западный и северный
Температура 20°C
Влажность 43%
Давление 1011 hPa
Видимость 10 км и более
Нет облачности ниже 1500 м, и нет кучево-дождевой облачности

METAR: EFSI 221520Z AUTO 32004KT 280V010 CAVOK 20/07 Q1011

Время: 18:31 (15:31 UTC)

Прогноз

Эта сводка был подготовлена 57 минут назад, в 14:34 UTC
Прогноз действительный с 22-го 15 UTC до 22-го 24 UTC
Ветер 4 Узел от северо-северо-восточный
Видимость 10 км и более
Нет облачности ниже 1500 м, и нет кучево-дождевой облачности

TAF: EFSI 221434Z 2215/2224 02004KT CAVOK

Метеонаблюдения и прогнозы для более 4000 аэропортов (сводки METAR и TAF).

Имеющиеся станции представлены на карте желтыми и красными точками.

Чтобы увидеть название станции, наведите на нее мышь.

Затем щелкните, чтобы увидеть метеонаблюдения и метеопрогнозы.

Управление картой: чтобы увеличить масштаб, щелкните зеленые кнопки с черным крестиком; чтобы уменьшить масштаб, щелкните зеленую кнопку с тире; для просмотра соседних карт щелкайте зеленые стрелки.


METAR-TAF: